sensor_id;sensor_type;location;lat;lon;timestamp;pressure;altitude;pressure_sealevel;temperature
27986;BMP280;15453;53.692;10.168;2023-02-04T00:00:46;102438.06;;;8.11
27986;BMP280;15453;53.692;10.168;2023-02-04T00:03:13;102431.31;;;8.07
27986;BMP280;15453;53.692;10.168;2023-02-04T00:05:39;102438.81;;;8.05
27986;BMP280;15453;53.692;10.168;2023-02-04T00:08:04;102450.97;;;8.03
27986;BMP280;15453;53.692;10.168;2023-02-04T00:10:30;102457.66;;;8.00
27986;BMP280;15453;53.692;10.168;2023-02-04T00:12:55;102462.66;;;7.97
27986;BMP280;15453;53.692;10.168;2023-02-04T00:15:20;102463.88;;;7.94
27986;BMP280;15453;53.692;10.168;2023-02-04T00:17:45;102474.81;;;7.94
27986;BMP280;15453;53.692;10.168;2023-02-04T00:20:11;102479.78;;;7.91
27986;BMP280;15453;53.692;10.168;2023-02-04T00:22:36;102484.59;;;7.89
27986;BMP280;15453;53.692;10.168;2023-02-04T00:25:01;102487.50;;;7.87
27986;BMP280;15453;53.692;10.168;2023-02-04T00:27:27;102488.72;;;7.85
27986;BMP280;15453;53.692;10.168;2023-02-04T00:29:52;102494.38;;;7.83
27986;BMP280;15453;53.692;10.168;2023-02-04T00:32:17;102514.50;;;7.82
27986;BMP280;15453;53.692;10.168;2023-02-04T00:34:42;102516.56;;;7.80
27986;BMP280;15453;53.692;10.168;2023-02-04T00:37:08;102529.19;;;7.81
27986;BMP280;15453;53.692;10.168;2023-02-04T00:39:33;102527.66;;;7.79
27986;BMP280;15453;53.692;10.168;2023-02-04T00:41:58;102540.47;;;7.78
27986;BMP280;15453;53.692;10.168;2023-02-04T00:44:24;102541.69;;;7.76
27986;BMP280;15453;53.692;10.168;2023-02-04T00:46:49;102543.56;;;7.75
27986;BMP280;15453;53.692;10.168;2023-02-04T00:49:14;102557.19;;;7.75
27986;BMP280;15453;53.692;10.168;2023-02-04T00:51:40;102559.06;;;7.75
27986;BMP280;15453;53.692;10.168;2023-02-04T00:54:08;102580.88;;;7.75
27986;BMP280;15453;53.692;10.168;2023-02-04T00:56:33;102592.66;;;7.75
27986;BMP280;15453;53.692;10.168;2023-02-04T00:58:59;102599.81;;;7.76
27986;BMP280;15453;53.692;10.168;2023-02-04T01:01:24;102603.56;;;7.75
27986;BMP280;15453;53.692;10.168;2023-02-04T01:03:49;102600.84;;;7.75
27986;BMP280;15453;53.692;10.168;2023-02-04T01:06:15;102609.03;;;7.75
27986;BMP280;15453;53.692;10.168;2023-02-04T01:08:40;102621.81;;;7.75
27986;BMP280;15453;53.692;10.168;2023-02-04T01:11:05;102625.56;;;7.74
27986;BMP280;15453;53.692;10.168;2023-02-04T01:13:30;102632.94;;;7.73
27986;BMP280;15453;53.692;10.168;2023-02-04T01:15:56;102650.97;;;7.74
27986;BMP280;15453;53.692;10.168;2023-02-04T01:18:21;102653.72;;;7.74
27986;BMP280;15453;53.692;10.168;2023-02-04T01:20:46;102659.16;;;7.74
27986;BMP280;15453;53.692;10.168;2023-02-04T01:23:11;102658.13;;;7.75
27986;BMP280;15453;53.692;10.168;2023-02-04T01:25:37;102665.44;;;7.75
27986;BMP280;15453;53.692;10.168;2023-02-04T01:28:02;102672.63;;;7.76
27986;BMP280;15453;53.692;10.168;2023-02-04T01:30:27;102685.41;;;7.75
27986;BMP280;15453;53.692;10.168;2023-02-04T01:32:53;102687.28;;;7.75
27986;BMP280;15453;53.692;10.168;2023-02-04T01:35:18;102685.59;;;7.74
27986;BMP280;15453;53.692;10.168;2023-02-04T01:37:43;102685.59;;;7.74
27986;BMP280;15453;53.692;10.168;2023-02-04T01:40:09;102687.84;;;7.70
27986;BMP280;15453;53.692;10.168;2023-02-04T01:42:35;102687.84;;;7.70
27986;BMP280;15453;53.692;10.168;2023-02-04T01:45:01;102689.53;;;7.71
27986;BMP280;15453;53.692;10.168;2023-02-04T01:47:27;102697.72;;;7.71
27986;BMP280;15453;53.692;10.168;2023-02-04T01:49:53;102704.84;;;7.72
27986;BMP280;15453;53.692;10.168;2023-02-04T01:52:19;102709.50;;;7.72
27986;BMP280;15453;53.692;10.168;2023-02-04T01:54:45;102718.31;;;7.74
27986;BMP280;15453;53.692;10.168;2023-02-04T01:57:14;102724.81;;;7.73
27986;BMP280;15453;53.692;10.168;2023-02-04T01:59:42;102711.00;;;7.74
27986;BMP280;15453;53.692;10.168;2023-02-04T02:02:41;102725.66;;;7.73
27986;BMP280;15453;53.692;10.168;2023-02-04T02:05:09;102730.09;;;7.74
27986;BMP280;15453;53.692;10.168;2023-02-04T02:07:34;102734.34;;;7.77
27986;BMP280;15453;53.692;10.168;2023-02-04T02:10:01;102737.06;;;7.77
27986;BMP280;15453;53.692;10.168;2023-02-04T02:12:27;102737.06;;;7.77
27986;BMP280;15453;53.692;10.168;2023-02-04T02:14:52;102732.25;;;7.79
27986;BMP280;15453;53.692;10.168;2023-02-04T02:17:17;102745.72;;;7.80
27986;BMP280;15453;53.692;10.168;2023-02-04T02:19:43;102748.63;;;7.79
27986;BMP280;15453;53.692;10.168;2023-02-04T02:22:29;102748.63;;;7.79
27986;BMP280;15453;53.692;10.168;2023-02-04T02:24:56;102760.56;;;7.78
27986;BMP280;15453;53.692;10.168;2023-02-04T02:27:21;102764.34;;;7.77
27986;BMP280;15453;53.692;10.168;2023-02-04T02:29:46;102762.81;;;7.74
27986;BMP280;15453;53.692;10.168;2023-02-04T02:32:13;102765.91;;;7.71
27986;BMP280;15453;53.692;10.168;2023-02-04T02:34:38;102776.16;;;7.69
27986;BMP280;15453;53.692;10.168;2023-02-04T02:37:05;102776.16;;;7.69
27986;BMP280;15453;53.692;10.168;2023-02-04T02:39:31;102789.69;;;7.63
27986;BMP280;15453;53.692;10.168;2023-02-04T02:41:57;102798.22;;;7.60
27986;BMP280;15453;53.692;10.168;2023-02-04T02:44:24;102797.69;;;7.56
27986;BMP280;15453;53.692;10.168;2023-02-04T02:46:50;102802.03;;;7.51
27986;BMP280;15453;53.692;10.168;2023-02-04T02:49:17;102806.13;;;7.47
27986;BMP280;15453;53.692;10.168;2023-02-04T02:51:44;102806.13;;;7.47
27986;BMP280;15453;53.692;10.168;2023-02-04T02:54:18;102814.53;;;7.37
27986;BMP280;15453;53.692;10.168;2023-02-04T02:56:44;102819.28;;;7.35
27986;BMP280;15453;53.692;10.168;2023-02-04T02:59:13;102831.78;;;7.30
27986;BMP280;15453;53.692;10.168;2023-02-04T03:01:39;102836.72;;;7.26
27986;BMP280;15453;53.692;10.168;2023-02-04T03:04:05;102840.81;;;7.22
27986;BMP280;15453;53.692;10.168;2023-02-04T03:06:30;102840.81;;;7.22
27986;BMP280;15453;53.692;10.168;2023-02-04T03:08:56;102847.16;;;7.15
27986;BMP280;15453;53.692;10.168;2023-02-04T03:11:22;102860.31;;;7.11
27986;BMP280;15453;53.692;10.168;2023-02-04T03:13:49;102867.97;;;7.08
27986;BMP280;15453;53.692;10.168;2023-02-04T03:16:15;102866.63;;;7.04
27986;BMP280;15453;53.692;10.168;2023-02-04T03:18:40;102867.00;;;7.01
27986;BMP280;15453;53.692;10.168;2023-02-04T03:21:06;102869.19;;;6.97
27986;BMP280;15453;53.692;10.168;2023-02-04T03:23:33;102870.38;;;6.95
27986;BMP280;15453;53.692;10.168;2023-02-04T03:25:59;102885.22;;;6.92
27986;BMP280;15453;53.692;10.168;2023-02-04T03:28:24;102895.63;;;6.89
27986;BMP280;15453;53.692;10.168;2023-02-04T03:30:50;102895.63;;;6.89
27986;BMP280;15453;53.692;10.168;2023-02-04T03:33:25;102912.28;;;6.86
27986;BMP280;15453;53.692;10.168;2023-02-04T03:35:52;102909.75;;;6.84
27986;BMP280;15453;53.692;10.168;2023-02-04T03:38:17;102918.94;;;6.83
27986;BMP280;15453;53.692;10.168;2023-02-04T03:40:43;102923.38;;;6.84
27986;BMP280;15453;53.692;10.168;2023-02-04T03:43:08;102932.41;;;6.85
27986;BMP280;15453;53.692;10.168;2023-02-04T03:45:34;102928.66;;;6.86
27986;BMP280;15453;53.692;10.168;2023-02-04T03:47:59;102943.97;;;6.87
27986;BMP280;15453;53.692;10.168;2023-02-04T03:50:24;102948.41;;;6.88
27986;BMP280;15453;53.692;10.168;2023-02-04T03:52:49;102963.72;;;6.89
27986;BMP280;15453;53.692;10.168;2023-02-04T03:55:16;102980.72;;;6.91
27986;BMP280;15453;53.692;10.168;2023-02-04T03:57:41;102982.47;;;6.92
27986;BMP280;15453;53.692;10.168;2023-02-04T04:00:08;102985.84;;;6.94
27986;BMP280;15453;53.692;10.168;2023-02-04T04:02:33;102990.28;;;6.95
27986;BMP280;15453;53.692;10.168;2023-02-04T04:04:59;103003.06;;;6.94
27986;BMP280;15453;53.692;10.168;2023-02-04T04:07:24;103005.59;;;6.96
27986;BMP280;15453;53.692;10.168;2023-02-04T04:09:49;103014.47;;;6.98
27986;BMP280;15453;53.692;10.168;2023-02-04T04:12:15;103018.03;;;6.98
27986;BMP280;15453;53.692;10.168;2023-02-04T04:14:40;103018.03;;;6.98
27986;BMP280;15453;53.692;10.168;2023-02-04T04:17:05;103034.41;;;6.98
27986;BMP280;15453;53.692;10.168;2023-02-04T04:19:31;103024.31;;;6.99
27986;BMP280;15453;53.692;10.168;2023-02-04T04:21:57;103022.31;;;7.01
27986;BMP280;15453;53.692;10.168;2023-02-04T04:24:22;103025.19;;;6.99
27986;BMP280;15453;53.692;10.168;2023-02-04T04:26:47;103026.03;;;7.00
27986;BMP280;15453;53.692;10.168;2023-02-04T04:29:13;103034.19;;;7.00
27986;BMP280;15453;53.692;10.168;2023-02-04T04:31:38;103024.31;;;6.99
27986;BMP280;15453;53.692;10.168;2023-02-04T04:34:03;103024.31;;;6.99
27986;BMP280;15453;53.692;10.168;2023-02-04T04:36:28;103031.66;;;6.98
27986;BMP280;15453;53.692;10.168;2023-02-04T04:38:54;103038.13;;;6.97
27986;BMP280;15453;53.692;10.168;2023-02-04T04:41:19;103043.72;;;6.96
27986;BMP280;15453;53.692;10.168;2023-02-04T04:43:44;103049.19;;;6.96
27986;BMP280;15453;53.692;10.168;2023-02-04T04:46:09;103038.47;;;6.94
27986;BMP280;15453;53.692;10.168;2023-02-04T04:48:35;103045.78;;;6.94
27986;BMP280;15453;53.692;10.168;2023-02-04T04:51:00;103045.78;;;6.94
27986;BMP280;15453;53.692;10.168;2023-02-04T04:53:25;103061.28;;;6.93
27986;BMP280;15453;53.692;10.168;2023-02-04T04:55:50;103050.38;;;6.93
27986;BMP280;15453;53.692;10.168;2023-02-04T04:58:16;103058.56;;;6.93
27986;BMP280;15453;53.692;10.168;2023-02-04T05:00:41;103058.56;;;6.93
27986;BMP280;15453;53.692;10.168;2023-02-04T05:03:06;103057.72;;;6.93
27986;BMP280;15453;53.692;10.168;2023-02-04T05:05:31;103064.00;;;6.93
27986;BMP280;15453;53.692;10.168;2023-02-04T05:07:58;103068.44;;;6.94
27986;BMP280;15453;53.692;10.168;2023-02-04T05:10:23;103077.63;;;6.93
27986;BMP280;15453;53.692;10.168;2023-02-04T05:12:49;103082.25;;;6.93
27986;BMP280;15453;53.692;10.168;2023-02-04T05:15:14;103084.97;;;6.93
27986;BMP280;15453;53.692;10.168;2023-02-04T05:17:39;103092.44;;;6.91
27986;BMP280;15453;53.692;10.168;2023-02-04T05:20:05;103109.66;;;6.91
27986;BMP280;15453;53.692;10.168;2023-02-04T05:22:30;103114.41;;;6.89
27986;BMP280;15453;53.692;10.168;2023-02-04T05:24:56;103123.59;;;6.88
27986;BMP280;15453;53.692;10.168;2023-02-04T05:27:21;103125.81;;;6.85
27986;BMP280;15453;53.692;10.168;2023-02-04T05:29:47;103124.28;;;6.82
27986;BMP280;15453;53.692;10.168;2023-02-04T05:32:12;103123.75;;;6.79
27986;BMP280;15453;53.692;10.168;2023-02-04T05:34:37;103122.38;;;6.75
27986;BMP280;15453;53.692;10.168;2023-02-04T05:37:03;103124.59;;;6.71
27986;BMP280;15453;53.692;10.168;2023-02-04T05:39:28;103125.94;;;6.67
27986;BMP280;15453;53.692;10.168;2023-02-04T05:41:53;103132.72;;;6.63
27986;BMP280;15453;53.692;10.168;2023-02-04T05:44:18;103134.06;;;6.59
27986;BMP280;15453;53.692;10.168;2023-02-04T05:46:44;103146.16;;;6.57
27986;BMP280;15453;53.692;10.168;2023-02-04T05:49:09;103142.06;;;6.53
27986;BMP280;15453;53.692;10.168;2023-02-04T05:51:34;103160.59;;;6.49
27986;BMP280;15453;53.692;10.168;2023-02-04T05:53:59;103154.81;;;6.44
27986;BMP280;15453;53.692;10.168;2023-02-04T05:56:25;103162.44;;;6.41
27986;BMP280;15453;53.692;10.168;2023-02-04T05:58:50;103169.22;;;6.37
27986;BMP280;15453;53.692;10.168;2023-02-04T06:01:16;103172.59;;;6.31
27986;BMP280;15453;53.692;10.168;2023-02-04T06:03:41;103172.91;;;6.28
27986;BMP280;15453;53.692;10.168;2023-02-04T06:06:06;103168.13;;;6.22
27986;BMP280;15453;53.692;10.168;2023-02-04T06:08:31;103170.31;;;6.18
27986;BMP280;15453;53.692;10.168;2023-02-04T06:10:57;103172.50;;;6.14
27986;BMP280;15453;53.692;10.168;2023-02-04T06:13:22;103176.72;;;6.09
27986;BMP280;15453;53.692;10.168;2023-02-04T06:15:47;103178.94;;;6.05
27986;BMP280;15453;53.692;10.168;2023-02-04T06:18:12;103183.84;;;6.02
27986;BMP280;15453;53.692;10.168;2023-02-04T06:20:38;103191.28;;;6.00
27986;BMP280;15453;53.692;10.168;2023-02-04T06:23:03;103197.06;;;5.97
27986;BMP280;15453;53.692;10.168;2023-02-04T06:25:28;103199.09;;;5.95
27986;BMP280;15453;53.692;10.168;2023-02-04T06:27:54;103209.09;;;5.94
27986;BMP280;15453;53.692;10.168;2023-02-04T06:30:19;103209.41;;;5.91
27986;BMP280;15453;53.692;10.168;2023-02-04T06:32:44;103216.03;;;5.89
27986;BMP280;15453;53.692;10.168;2023-02-04T06:35:10;103239.69;;;5.88
27986;BMP280;15453;53.692;10.168;2023-02-04T06:37:37;103232.69;;;5.86
27986;BMP280;15453;53.692;10.168;2023-02-04T06:40:03;103231.97;;;5.84
27986;BMP280;15453;53.692;10.168;2023-02-04T06:42:29;103231.97;;;5.84
27986;BMP280;15453;53.692;10.168;2023-02-04T06:44:54;103246.03;;;5.79
27986;BMP280;15453;53.692;10.168;2023-02-04T06:47:19;103248.03;;;5.77
27986;BMP280;15453;53.692;10.168;2023-02-04T06:49:45;103250.09;;;5.75
27986;BMP280;15453;53.692;10.168;2023-02-04T06:52:10;103249.38;;;5.73
27986;BMP280;15453;53.692;10.168;2023-02-04T06:54:35;103263.13;;;5.72
27986;BMP280;15453;53.692;10.168;2023-02-04T06:57:01;103266.00;;;5.70
27986;BMP280;15453;53.692;10.168;2023-02-04T06:59:37;103274.16;;;5.70
27986;BMP280;15453;53.692;10.168;2023-02-04T07:02:04;103268.03;;;5.68
27986;BMP280;15453;53.692;10.168;2023-02-04T07:04:29;103279.94;;;5.67
27986;BMP280;15453;53.692;10.168;2023-02-04T07:06:55;103292.66;;;5.67
27986;BMP280;15453;53.692;10.168;2023-02-04T07:09:20;103296.38;;;5.66
27986;BMP280;15453;53.692;10.168;2023-02-04T07:11:45;103298.25;;;5.65
27986;BMP280;15453;53.692;10.168;2023-02-04T07:14:11;103300.13;;;5.65
27986;BMP280;15453;53.692;10.168;2023-02-04T07:16:36;103311.00;;;5.65
27986;BMP280;15453;53.692;10.168;2023-02-04T07:19:02;103313.88;;;5.63
27986;BMP280;15453;53.692;10.168;2023-02-04T07:21:27;103328.31;;;5.64
27986;BMP280;15453;53.692;10.168;2023-02-04T07:23:53;103324.75;;;5.63
27986;BMP280;15453;53.692;10.168;2023-02-04T07:26:18;103319.47;;;5.62
27986;BMP280;15453;53.692;10.168;2023-02-04T07:28:43;103331.22;;;5.62
27986;BMP280;15453;53.692;10.168;2023-02-04T07:31:09;103323.19;;;5.61
27986;BMP280;15453;53.692;10.168;2023-02-04T07:33:34;103329.47;;;5.61
27986;BMP280;15453;53.692;10.168;2023-02-04T07:35:59;103334.06;;;5.61
27986;BMP280;15453;53.692;10.168;2023-02-04T07:38:24;103344.81;;;5.62
27986;BMP280;15453;53.692;10.168;2023-02-04T07:40:50;103342.09;;;5.62
27986;BMP280;15453;53.692;10.168;2023-02-04T07:43:15;103347.53;;;5.62
27986;BMP280;15453;53.692;10.168;2023-02-04T07:45:40;103347.19;;;5.65
27986;BMP280;15453;53.692;10.168;2023-02-04T07:48:06;103341.91;;;5.64
27986;BMP280;15453;53.692;10.168;2023-02-04T07:50:31;103349.91;;;5.65
27986;BMP280;15453;53.692;10.168;2023-02-04T07:52:56;103352.63;;;5.65
27986;BMP280;15453;53.692;10.168;2023-02-04T07:55:21;103355.19;;;5.67
27986;BMP280;15453;53.692;10.168;2023-02-04T07:57:47;103352.47;;;5.67
27986;BMP280;15453;53.692;10.168;2023-02-04T08:00:12;103356.91;;;5.68
27986;BMP280;15453;53.692;10.168;2023-02-04T08:02:39;103356.91;;;5.68
27986;BMP280;15453;53.692;10.168;2023-02-04T08:05:06;103364.06;;;5.69
27986;BMP280;15453;53.692;10.168;2023-02-04T08:07:31;103362.19;;;5.69
27986;BMP280;15453;53.692;10.168;2023-02-04T08:09:56;103364.75;;;5.71
27986;BMP280;15453;53.692;10.168;2023-02-04T08:12:22;103370.03;;;5.72
27986;BMP280;15453;53.692;10.168;2023-02-04T08:14:47;103377.19;;;5.73
27986;BMP280;15453;53.692;10.168;2023-02-04T08:17:12;103377.19;;;5.73
27986;BMP280;15453;53.692;10.168;2023-02-04T08:19:37;103382.34;;;5.76
27986;BMP280;15453;53.692;10.168;2023-02-04T08:22:03;103374.84;;;5.78
27986;BMP280;15453;53.692;10.168;2023-02-04T08:24:28;103369.25;;;5.80
27986;BMP280;15453;53.692;10.168;2023-02-04T08:26:53;103372.75;;;5.82
27986;BMP280;15453;53.692;10.168;2023-02-04T08:29:18;103372.75;;;5.82
27986;BMP280;15453;53.692;10.168;2023-02-04T08:31:44;103372.25;;;5.86
27986;BMP280;15453;53.692;10.168;2023-02-04T08:34:11;103386.41;;;5.90
27986;BMP280;15453;53.692;10.168;2023-02-04T08:36:37;103381.66;;;5.92
27986;BMP280;15453;53.692;10.168;2023-02-04T08:39:02;103381.66;;;5.92
27986;BMP280;15453;53.692;10.168;2023-02-04T08:41:28;103385.63;;;5.97
27986;BMP280;15453;53.692;10.168;2023-02-04T08:43:53;103385.63;;;5.97
27986;BMP280;15453;53.692;10.168;2023-02-04T08:46:18;103395.88;;;6.03
27986;BMP280;15453;53.692;10.168;2023-02-04T08:48:44;103391.00;;;6.07
27986;BMP280;15453;53.692;10.168;2023-02-04T08:51:09;103394.25;;;6.10
27986;BMP280;15453;53.692;10.168;2023-02-04T08:53:34;103394.78;;;6.14
27986;BMP280;15453;53.692;10.168;2023-02-04T08:55:59;103393.63;;;6.16
27986;BMP280;15453;53.692;10.168;2023-02-04T08:58:25;103393.63;;;6.16
27986;BMP280;15453;53.692;10.168;2023-02-04T09:00:50;103397.38;;;6.15
27986;BMP280;15453;53.692;10.168;2023-02-04T09:03:15;103420.63;;;6.28
27986;BMP280;15453;53.692;10.168;2023-02-04T09:05:40;103420.63;;;6.28
27986;BMP280;15453;53.692;10.168;2023-02-04T09:08:06;103413.31;;;6.28
27986;BMP280;15453;53.692;10.168;2023-02-04T09:10:31;103419.50;;;6.38
27986;BMP280;15453;53.692;10.168;2023-02-04T09:12:56;103419.50;;;6.38
27986;BMP280;15453;53.692;10.168;2023-02-04T09:15:22;103418.19;;;6.42
27986;BMP280;15453;53.692;10.168;2023-02-04T09:17:48;103428.84;;;6.53
27986;BMP280;15453;53.692;10.168;2023-02-04T09:20:14;103429.38;;;6.57
27986;BMP280;15453;53.692;10.168;2023-02-04T09:22:39;103429.75;;;6.62
27986;BMP280;15453;53.692;10.168;2023-02-04T09:25:05;103429.75;;;6.62
27986;BMP280;15453;53.692;10.168;2023-02-04T09:27:30;103439.00;;;6.69
27986;BMP280;15453;53.692;10.168;2023-02-04T09:29:55;103442.25;;;6.72
27986;BMP280;15453;53.692;10.168;2023-02-04T09:32:21;103450.13;;;6.75
27986;BMP280;15453;53.692;10.168;2023-02-04T09:34:46;103450.13;;;6.75
27986;BMP280;15453;53.692;10.168;2023-02-04T09:37:11;103443.88;;;6.83
27986;BMP280;15453;53.692;10.168;2023-02-04T09:39:36;103438.97;;;6.86
27986;BMP280;15453;53.692;10.168;2023-02-04T09:42:02;103438.97;;;6.86
27986;BMP280;15453;53.692;10.168;2023-02-04T09:44:28;103441.69;;;6.86
27986;BMP280;15453;53.692;10.168;2023-02-04T09:46:56;103445.31;;;6.95
27986;BMP280;15453;53.692;10.168;2023-02-04T09:49:22;103442.28;;;6.98
27986;BMP280;15453;53.692;10.168;2023-02-04T09:51:48;103449.97;;;7.02
27986;BMP280;15453;53.692;10.168;2023-02-04T09:54:16;103449.97;;;7.02
27986;BMP280;15453;53.692;10.168;2023-02-04T09:56:42;103458.19;;;7.10
27986;BMP280;15453;53.692;10.168;2023-02-04T09:59:13;103461.63;;;7.12
27986;BMP280;15453;53.692;10.168;2023-02-04T10:01:38;103461.63;;;7.12
27986;BMP280;15453;53.692;10.168;2023-02-04T10:04:04;103456.38;;;7.19
27986;BMP280;15453;53.692;10.168;2023-02-04T10:06:29;103456.38;;;7.19
27986;BMP280;15453;53.692;10.168;2023-02-04T10:08:55;103456.38;;;7.19
27986;BMP280;15453;53.692;10.168;2023-02-04T10:11:22;103455.03;;;7.23
27986;BMP280;15453;53.692;10.168;2023-02-04T10:13:50;103460.19;;;7.26
27986;BMP280;15453;53.692;10.168;2023-02-04T10:16:23;103470.22;;;7.25
27986;BMP280;15453;53.692;10.168;2023-02-04T10:18:57;103482.88;;;7.34
27986;BMP280;15453;53.692;10.168;2023-02-04T10:21:28;103482.88;;;7.34
27986;BMP280;15453;53.692;10.168;2023-02-04T10:23:55;103473.91;;;7.42
27986;BMP280;15453;53.692;10.168;2023-02-04T10:26:22;103472.53;;;7.46
27986;BMP280;15453;53.692;10.168;2023-02-04T10:28:47;103472.53;;;7.46
27986;BMP280;15453;53.692;10.168;2023-02-04T10:31:33;103464.34;;;7.46
27986;BMP280;15453;53.692;10.168;2023-02-04T10:34:30;103465.06;;;7.48
27986;BMP280;15453;53.692;10.168;2023-02-04T10:36:56;103480.78;;;7.62
27986;BMP280;15453;53.692;10.168;2023-02-04T10:39:28;103491.38;;;7.65
27986;BMP280;15453;53.692;10.168;2023-02-04T10:41:56;103493.63;;;7.69
27986;BMP280;15453;53.692;10.168;2023-02-04T10:44:28;103493.63;;;7.69
27986;BMP280;15453;53.692;10.168;2023-02-04T10:47:04;103489.56;;;7.73
27986;BMP280;15453;53.692;10.168;2023-02-04T10:49:30;103500.00;;;7.86
27986;BMP280;15453;53.692;10.168;2023-02-04T10:51:56;103486.19;;;7.87
27986;BMP280;15453;53.692;10.168;2023-02-04T10:54:24;103486.19;;;7.87
27986;BMP280;15453;53.692;10.168;2023-02-04T10:59:28;103498.16;;;7.94
27986;BMP280;15453;53.692;10.168;2023-02-04T11:01:55;103498.16;;;7.94
27986;BMP280;15453;53.692;10.168;2023-02-04T11:04:21;103507.53;;;8.00
27986;BMP280;15453;53.692;10.168;2023-02-04T11:06:47;103505.03;;;8.06
27986;BMP280;15453;53.692;10.168;2023-02-04T11:09:13;103506.75;;;8.07
27986;BMP280;15453;53.692;10.168;2023-02-04T11:11:44;103506.75;;;8.07
27986;BMP280;15453;53.692;10.168;2023-02-04T11:14:28;103493.25;;;8.06
27986;BMP280;15453;53.692;10.168;2023-02-04T11:16:54;103497.19;;;8.11
27986;BMP280;15453;53.692;10.168;2023-02-04T11:19:50;103506.59;;;8.17
27986;BMP280;15453;53.692;10.168;2023-02-04T11:22:22;103506.59;;;8.17
27986;BMP280;15453;53.692;10.168;2023-02-04T11:24:48;103495.31;;;8.20
27986;BMP280;15453;53.692;10.168;2023-02-04T11:27:20;103496.56;;;8.25
27986;BMP280;15453;53.692;10.168;2023-02-04T11:29:46;103499.81;;;8.29
27986;BMP280;15453;53.692;10.168;2023-02-04T11:37:39;103504.44;;;8.36
27986;BMP280;15453;53.692;10.168;2023-02-04T11:40:25;103502.38;;;8.38
27986;BMP280;15453;53.692;10.168;2023-02-04T11:42:56;103498.63;;;8.39
27986;BMP280;15453;53.692;10.168;2023-02-04T11:45:26;103501.19;;;8.41
27986;BMP280;15453;53.692;10.168;2023-02-04T11:47:51;103504.97;;;8.48
27986;BMP280;15453;53.692;10.168;2023-02-04T11:50:31;103504.97;;;8.48
27986;BMP280;15453;53.692;10.168;2023-02-04T11:52:58;103504.28;;;8.46
27986;BMP280;15453;53.692;10.168;2023-02-04T11:55:24;103507.00;;;8.54
27986;BMP280;15453;53.692;10.168;2023-02-04T11:57:52;103507.00;;;8.54
27986;BMP280;15453;53.692;10.168;2023-02-04T12:00:26;103499.84;;;8.53
27986;BMP280;15453;53.692;10.168;2023-02-04T12:03:00;103506.19;;;8.53
27986;BMP280;15453;53.692;10.168;2023-02-04T12:05:40;103523.06;;;8.57
27986;BMP280;15453;53.692;10.168;2023-02-04T12:08:29;103523.06;;;8.57
27986;BMP280;15453;53.692;10.168;2023-02-04T12:13:28;103526.00;;;8.63
27986;BMP280;15453;53.692;10.168;2023-02-04T12:15:58;103526.00;;;8.63
27986;BMP280;15453;53.692;10.168;2023-02-04T12:18:23;103519.84;;;8.61
27986;BMP280;15453;53.692;10.168;2023-02-04T12:20:51;103527.53;;;8.66
27986;BMP280;15453;53.692;10.168;2023-02-04T12:23:17;103527.53;;;8.66
27986;BMP280;15453;53.692;10.168;2023-02-04T12:25:42;103524.63;;;8.67
27986;BMP280;15453;53.692;10.168;2023-02-04T12:28:07;103527.34;;;8.67
27986;BMP280;15453;53.692;10.168;2023-02-04T12:30:32;103536.25;;;8.69
27986;BMP280;15453;53.692;10.168;2023-02-04T12:32:58;103536.25;;;8.69
27986;BMP280;15453;53.692;10.168;2023-02-04T12:35:23;103526.69;;;8.65
27986;BMP280;15453;53.692;10.168;2023-02-04T12:37:48;103530.97;;;8.68
27986;BMP280;15453;53.692;10.168;2023-02-04T12:40:15;103531.63;;;8.70
27986;BMP280;15453;53.692;10.168;2023-02-04T12:42:41;103531.63;;;8.70
27986;BMP280;15453;53.692;10.168;2023-02-04T12:45:06;103534.34;;;8.70
27986;BMP280;15453;53.692;10.168;2023-02-04T12:47:32;103532.66;;;8.69
27986;BMP280;15453;53.692;10.168;2023-02-04T12:49:57;103530.97;;;8.68
27986;BMP280;15453;53.692;10.168;2023-02-04T12:52:22;103540.19;;;8.67
27986;BMP280;15453;53.692;10.168;2023-02-04T12:54:47;103541.34;;;8.64
27986;BMP280;15453;53.692;10.168;2023-02-04T12:57:13;103546.16;;;8.62
27986;BMP280;15453;53.692;10.168;2023-02-04T12:59:43;103546.31;;;8.61
27986;BMP280;15453;53.692;10.168;2023-02-04T13:02:09;103546.31;;;8.61
27986;BMP280;15453;53.692;10.168;2023-02-04T13:04:35;103543.91;;;8.58
27986;BMP280;15453;53.692;10.168;2023-02-04T13:07:00;103543.91;;;8.58
27986;BMP280;15453;53.692;10.168;2023-02-04T13:09:25;103547.00;;;8.55
27986;BMP280;15453;53.692;10.168;2023-02-04T13:11:50;103547.00;;;8.55
27986;BMP280;15453;53.692;10.168;2023-02-04T13:14:16;103543.41;;;8.54
27986;BMP280;15453;53.692;10.168;2023-02-04T13:16:41;103555.88;;;8.57
27986;BMP280;15453;53.692;10.168;2023-02-04T13:19:06;103555.88;;;8.57
27986;BMP280;15453;53.692;10.168;2023-02-04T13:21:31;103555.34;;;8.53
27986;BMP280;15453;53.692;10.168;2023-02-04T13:23:57;103549.72;;;8.55
27986;BMP280;15453;53.692;10.168;2023-02-04T13:26:24;103550.22;;;8.58
27986;BMP280;15453;53.692;10.168;2023-02-04T13:28:49;103553.84;;;8.59
27986;BMP280;15453;53.692;10.168;2023-02-04T13:31:14;103558.44;;;8.58
27986;BMP280;15453;53.692;10.168;2023-02-04T13:33:39;103552.97;;;8.58
27986;BMP280;15453;53.692;10.168;2023-02-04T13:36:05;103551.94;;;8.59
27986;BMP280;15453;53.692;10.168;2023-02-04T13:38:30;103554.34;;;8.62
27986;BMP280;15453;53.692;10.168;2023-02-04T13:40:55;103554.34;;;8.62
27986;BMP280;15453;53.692;10.168;2023-02-04T13:43:20;103554.34;;;8.62
27986;BMP280;15453;53.692;10.168;2023-02-04T13:45:46;103559.47;;;8.65
27986;BMP280;15453;53.692;10.168;2023-02-04T13:48:13;103560.47;;;8.64
27986;BMP280;15453;53.692;10.168;2023-02-04T13:50:39;103560.47;;;8.64
27986;BMP280;15453;53.692;10.168;2023-02-04T13:53:04;103573.31;;;8.64
27986;BMP280;15453;53.692;10.168;2023-02-04T13:55:29;103573.31;;;8.64
27986;BMP280;15453;53.692;10.168;2023-02-04T13:57:54;103568.00;;;8.62
27986;BMP280;15453;53.692;10.168;2023-02-04T14:00:20;103568.00;;;8.62
27986;BMP280;15453;53.692;10.168;2023-02-04T14:02:45;103567.13;;;8.62